Time,TemperatureF,DewpointF,PressureIn,WindDirection,WindDirectionDegrees,WindSpeedMPH,WindSpeedGustMPH,Humidity,HourlyPrecipIn,Conditions,Clouds,dailyrainin,SolarRadiationWatts/m^2,SoftwareType,DateUTC
2013-04-11 00:02:00,18.0,9.0,-100.00,WNW,282,7.0,17.0,68,0.00,,,0.19,0.000000,,2013-04-11 06:02:00,
2013-04-11 00:12:00,18.0,9.0,-100.00,WNW,282,7.0,17.0,68,0.00,,,0.19,0.000000,,2013-04-11 06:12:00,
2013-04-11 00:22:00,18.0,9.0,-100.00,WNW,282,7.0,17.0,68,0.00,,,0.19,0.000000,,2013-04-11 06:22:00,
2013-04-11 00:32:00,18.0,9.0,-100.00,WNW,282,7.0,17.0,68,0.00,,,0.19,0.000000,,2013-04-11 06:32:00,
2013-04-11 00:52:00,17.0,7.0,-100.00,West,266,7.0,17.0,63,0.00,,,0.19,0.000000,,2013-04-11 06:52:00,
2013-04-11 01:02:00,17.0,7.0,-100.00,West,266,7.0,17.0,63,0.00,,,0.19,0.000000,,2013-04-11 07:02:00,
2013-04-11 01:12:00,17.0,7.0,-100.00,West,266,7.0,17.0,63,0.00,,,0.19,0.000000,,2013-04-11 07:12:00,
2013-04-11 01:22:00,17.0,7.0,-100.00,West,266,7.0,17.0,63,0.00,,,0.19,0.000000,,2013-04-11 07:22:00,
2013-04-11 01:32:00,17.0,7.0,-100.00,West,266,7.0,17.0,63,0.00,,,0.19,0.000000,,2013-04-11 07:32:00,
2013-04-11 01:52:00,17.0,5.0,-100.00,WNW,283,6.0,15.0,58,0.00,,,0.19,0.000000,,2013-04-11 07:52:00,
2013-04-11 02:03:00,17.0,5.0,-100.00,WNW,283,6.0,15.0,58,0.00,,,0.19,0.000000,,2013-04-11 08:03:00,
2013-04-11 02:12:00,17.0,5.0,-100.00,WNW,283,6.0,15.0,58,0.00,,,0.19,0.000000,,2013-04-11 08:12:00,
2013-04-11 02:22:00,17.0,5.0,-100.00,WNW,283,6.0,15.0,58,0.00,,,0.19,0.000000,,2013-04-11 08:22:00,
2013-04-11 02:32:00,17.0,5.0,-100.00,WNW,283,6.0,15.0,58,0.00,,,0.19,0.000000,,2013-04-11 08:32:00,
2013-04-11 02:52:00,17.0,4.0,-100.00,West,270,6.0,12.0,56,0.00,,,0.19,0.000000,,2013-04-11 08:52:00,
2013-04-11 03:02:00,17.0,4.0,-100.00,West,270,6.0,12.0,56,0.00,,,0.19,0.000000,,2013-04-11 09:02:00,
2013-04-11 03:12:00,17.0,4.0,-100.00,West,270,6.0,12.0,56,0.00,,,0.19,0.000000,,2013-04-11 09:12:00,
2013-04-11 03:22:00,17.0,4.0,-100.00,West,270,6.0,12.0,56,0.00,,,0.19,0.000000,,2013-04-11 09:22:00,
2013-04-11 03:33:00,17.0,4.0,-100.00,West,270,6.0,12.0,56,0.00,,,0.19,0.000000,,2013-04-11 09:33:00,
2013-04-11 03:53:00,21.0,9.0,-100.00,West,270,13.0,23.0,58,0.00,,,0.19,0.000000,,2013-04-11 09:53:00,
2013-04-11 04:02:00,21.0,9.0,-100.00,West,270,13.0,23.0,58,0.00,,,0.19,0.000000,,2013-04-11 10:02:00,
2013-04-11 04:12:00,21.0,9.0,-100.00,West,270,13.0,23.0,58,0.00,,,0.19,0.000000,,2013-04-11 10:12:00,
2013-04-11 04:23:00,21.0,9.0,-100.00,West,270,13.0,23.0,58,0.00,,,0.19,0.000000,,2013-04-11 10:23:00,
2013-04-11 04:32:00,21.0,9.0,-100.00,West,270,13.0,23.0,58,0.00,,,0.19,0.000000,,2013-04-11 10:32:00,
2013-04-11 04:52:00,17.0,8.0,-100.00,West,277,10.0,23.0,68,0.00,,,0.19,0.000000,,2013-04-11 10:52:00,
2013-04-11 05:02:00,17.0,8.0,-100.00,West,277,10.0,23.0,68,0.00,,,0.19,0.000000,,2013-04-11 11:02:00,
2013-04-11 05:12:00,17.0,8.0,-100.00,West,277,10.0,23.0,68,0.00,,,0.19,0.000000,,2013-04-11 11:12:00,
2013-04-11 05:23:00,17.0,8.0,-100.00,West,277,10.0,23.0,68,0.00,,,0.19,0.000000,,2013-04-11 11:23:00,
2013-04-11 05:32:00,17.0,8.0,-100.00,West,277,10.0,23.0,68,0.00,,,0.19,0.000000,,2013-04-11 11:32:00,
2013-04-11 05:52:00,22.0,9.0,-100.00,WNW,282,8.0,31.0,57,0.00,,,-99.99,0.000000,,2013-04-11 11:52:00,
2013-04-11 06:02:00,22.0,9.0,-100.00,WNW,282,8.0,31.0,57,0.00,,,-99.99,0.000000,,2013-04-11 12:02:00,
2013-04-11 06:12:00,22.0,9.0,-100.00,WNW,282,8.0,31.0,57,0.00,,,-99.99,0.000000,,2013-04-11 12:12:00,
2013-04-11 06:22:00,22.0,9.0,-100.00,WNW,282,8.0,31.0,57,0.00,,,-99.99,0.000000,,2013-04-11 12:22:00,
2013-04-11 06:32:00,22.0,9.0,-100.00,WNW,282,8.0,31.0,57,0.00,,,-99.99,0.000000,,2013-04-11 12:32:00,
2013-04-11 06:52:00,21.0,9.0,-100.00,NW,319,3.0,15.0,58,0.00,,,-99.99,1.000000,,2013-04-11 12:52:00,
2013-04-11 07:02:00,21.0,9.0,-100.00,NW,319,3.0,15.0,58,0.00,,,-99.99,1.000000,,2013-04-11 13:02:00,
2013-04-11 07:12:00,21.0,9.0,-100.00,NW,319,3.0,15.0,58,0.00,,,-99.99,1.000000,,2013-04-11 13:12:00,
2013-04-11 07:23:00,21.0,9.0,-100.00,NW,319,3.0,15.0,58,0.00,,,-99.99,1.000000,,2013-04-11 13:23:00,
2013-04-11 07:32:00,21.0,9.0,-100.00,NW,319,3.0,15.0,58,0.00,,,-99.99,1.000000,,2013-04-11 13:32:00,
2013-04-11 07:54:00,21.0,10.0,-100.00,West,259,5.0,12.0,62,0.00,,,0.19,14.000000,,2013-04-11 13:54:00,
2013-04-11 08:02:00,21.0,10.0,-100.00,West,259,5.0,12.0,62,0.00,,,0.19,14.000000,,2013-04-11 14:02:00,
2013-04-11 08:12:00,21.0,10.0,-100.00,West,259,5.0,12.0,62,0.00,,,0.19,14.000000,,2013-04-11 14:12:00,
2013-04-11 08:22:00,21.0,10.0,-100.00,West,259,5.0,12.0,62,0.00,,,0.19,14.000000,,2013-04-11 14:22:00,
2013-04-11 08:32:00,21.0,10.0,-100.00,West,259,5.0,12.0,62,0.00,,,0.19,14.000000,,2013-04-11 14:32:00,
2013-04-11 08:53:00,30.0,14.0,-100.00,West,262,9.0,21.0,50,0.00,,,0.19,278.000000,,2013-04-11 14:53:00,
2013-04-11 09:02:00,30.0,14.0,-100.00,West,262,9.0,21.0,50,0.00,,,0.19,278.000000,,2013-04-11 15:02:00,
2013-04-11 09:12:00,30.0,14.0,-100.00,West,262,9.0,21.0,50,0.00,,,0.19,278.000000,,2013-04-11 15:12:00,
2013-04-11 09:22:00,30.0,14.0,-100.00,West,262,9.0,21.0,50,0.00,,,0.19,278.000000,,2013-04-11 15:22:00,
2013-04-11 09:32:00,30.0,14.0,-100.00,West,262,9.0,21.0,50,0.00,,,0.19,278.000000,,2013-04-11 15:32:00,
2013-04-11 10:53:00,35.0,16.0,-100.00,WSW,247,13.0,35.0,46,-99.99,,,0.10,697.000000,,2013-04-11 16:53:00,
2013-04-11 11:02:00,35.0,16.0,-100.00,WSW,247,13.0,35.0,46,-99.99,,,0.10,697.000000,,2013-04-11 17:02:00,
2013-04-11 11:12:00,35.0,16.0,-100.00,WSW,247,13.0,35.0,46,-99.99,,,0.10,697.000000,,2013-04-11 17:12:00,
2013-04-11 11:23:00,35.0,16.0,-100.00,WSW,247,13.0,35.0,46,-99.99,,,0.10,697.000000,,2013-04-11 17:23:00,
2013-04-11 11:32:00,35.0,16.0,-100.00,WSW,247,13.0,35.0,46,-99.99,,,0.10,697.000000,,2013-04-11 17:32:00,
2013-04-11 11:53:00,35.0,16.0,-100.00,WSW,242,17.0,30.0,46,0.00,,,-99.99,855.000000,,2013-04-11 17:53:00,
2013-04-11 12:03:00,35.0,16.0,-100.00,WSW,242,17.0,30.0,46,0.00,,,-99.99,855.000000,,2013-04-11 18:03:00,
2013-04-11 12:13:00,35.0,16.0,-100.00,WSW,242,17.0,30.0,46,0.00,,,-99.99,855.000000,,2013-04-11 18:13:00,
2013-04-11 12:23:00,35.0,16.0,-100.00,WSW,242,17.0,30.0,46,0.00,,,-99.99,855.000000,,2013-04-11 18:23:00,
2013-04-11 12:33:00,35.0,16.0,-100.00,WSW,242,17.0,30.0,46,0.00,,,-99.99,855.000000,,2013-04-11 18:33:00,
2013-04-11 12:53:00,38.0,18.0,-100.00,WSW,238,18.0,32.0,44,0.00,,,0.00,995.000000,,2013-04-11 18:53:00,
2013-04-11 13:03:00,38.0,18.0,-100.00,WSW,238,18.0,32.0,44,0.00,,,0.00,995.000000,,2013-04-11 19:03:00,
2013-04-11 13:14:00,38.0,18.0,-100.00,WSW,238,18.0,32.0,44,0.00,,,0.00,995.000000,,2013-04-11 19:14:00,
2013-04-11 13:22:00,38.0,18.0,-100.00,WSW,238,18.0,32.0,44,0.00,,,0.00,995.000000,,2013-04-11 19:22:00,
2013-04-11 13:32:00,38.0,18.0,-100.00,WSW,238,18.0,32.0,44,0.00,,,0.00,995.000000,,2013-04-11 19:32:00,
2013-04-11 13:53:00,38.0,22.0,-100.00,WSW,239,15.0,29.0,51,0.00,,,0.00,796.000000,,2013-04-11 19:53:00,
2013-04-11 14:02:00,38.0,22.0,-100.00,WSW,239,15.0,29.0,51,0.00,,,0.00,796.000000,,2013-04-11 20:02:00,
2013-04-11 14:13:00,38.0,22.0,-100.00,WSW,239,15.0,29.0,51,0.00,,,0.00,796.000000,,2013-04-11 20:13:00,
2013-04-11 14:22:00,38.0,22.0,-100.00,WSW,239,15.0,29.0,51,0.00,,,0.00,796.000000,,2013-04-11 20:22:00,
2013-04-11 14:33:00,38.0,22.0,-100.00,WSW,239,15.0,29.0,51,0.00,,,0.00,796.000000,,2013-04-11 20:33:00,
2013-04-11 14:52:00,39.0,21.0,-100.00,WSW,256,14.0,27.0,49,0.00,,,0.00,436.000000,,2013-04-11 20:52:00,
2013-04-11 15:03:00,39.0,21.0,-100.00,WSW,256,14.0,27.0,49,0.00,,,0.00,436.000000,,2013-04-11 21:03:00,
2013-04-11 15:12:00,39.0,21.0,-100.00,WSW,256,14.0,27.0,49,0.00,,,0.00,436.000000,,2013-04-11 21:12:00,
2013-04-11 15:22:00,39.0,21.0,-100.00,WSW,256,14.0,27.0,49,0.00,,,0.00,436.000000,,2013-04-11 21:22:00,
2013-04-11 15:33:00,39.0,21.0,-100.00,WSW,256,14.0,27.0,49,0.00,,,0.00,436.000000,,2013-04-11 21:33:00,
2013-04-11 15:54:00,40.0,19.0,-100.00,WNW,284,10.0,21.0,42,0.00,,,0.00,317.000000,,2013-04-11 21:54:00,
2013-04-11 16:03:00,40.0,19.0,-100.00,WNW,284,10.0,21.0,42,0.00,,,0.00,317.000000,,2013-04-11 22:03:00,
2013-04-11 16:13:00,40.0,19.0,-100.00,WNW,284,10.0,21.0,42,0.00,,,0.00,317.000000,,2013-04-11 22:13:00,
2013-04-11 16:23:00,40.0,19.0,-100.00,WNW,284,10.0,21.0,42,0.00,,,0.00,317.000000,,2013-04-11 22:23:00,
2013-04-11 16:33:00,40.0,19.0,-100.00,WNW,284,10.0,21.0,42,0.00,,,0.00,317.000000,,2013-04-11 22:33:00,
2013-04-11 16:53:00,45.0,16.0,-100.00,WNW,286,12.0,18.0,31,0.00,,,0.00,489.000000,,2013-04-11 22:53:00,
2013-04-11 17:03:00,45.0,16.0,-100.00,WNW,286,12.0,18.0,31,0.00,,,0.00,489.000000,,2013-04-11 23:03:00,
2013-04-11 17:13:00,45.0,16.0,-100.00,WNW,286,12.0,18.0,31,0.00,,,0.00,489.000000,,2013-04-11 23:13:00,
2013-04-11 17:23:00,45.0,16.0,-100.00,WNW,286,12.0,18.0,31,0.00,,,0.00,489.000000,,2013-04-11 23:23:00,
2013-04-11 17:32:00,45.0,16.0,-100.00,WNW,286,12.0,18.0,31,0.00,,,0.00,489.000000,,2013-04-11 23:32:00,
2013-04-11 17:53:00,43.0,17.0,-100.00,WNW,284,10.0,25.0,35,0.00,,,0.00,580.000000,,2013-04-11 23:53:00,
2013-04-11 18:02:00,43.0,17.0,-100.00,WNW,284,10.0,25.0,35,0.00,,,0.00,580.000000,,2013-04-12 00:02:00,
2013-04-11 18:12:00,43.0,17.0,-100.00,WNW,284,10.0,25.0,35,0.00,,,0.00,580.000000,,2013-04-12 00:12:00,
2013-04-11 18:22:00,43.0,17.0,-100.00,WNW,284,10.0,25.0,35,0.00,,,0.00,580.000000,,2013-04-12 00:22:00,
2013-04-11 18:32:00,43.0,17.0,-100.00,WNW,284,10.0,25.0,35,0.00,,,0.00,580.000000,,2013-04-12 00:32:00,
2013-04-11 18:53:00,37.0,18.0,-100.00,WSW,250,13.0,22.0,46,0.00,,,0.00,156.000000,,2013-04-12 00:53:00,
2013-04-11 19:02:00,37.0,18.0,-100.00,WSW,250,13.0,22.0,46,0.00,,,0.00,156.000000,,2013-04-12 01:02:00,
2013-04-11 19:12:00,37.0,18.0,-100.00,WSW,250,13.0,22.0,46,0.00,,,0.00,156.000000,,2013-04-12 01:12:00,
2013-04-11 19:22:00,37.0,18.0,-100.00,WSW,250,13.0,22.0,46,0.00,,,0.00,156.000000,,2013-04-12 01:22:00,
2013-04-11 19:32:00,37.0,18.0,-100.00,WSW,250,13.0,22.0,46,0.00,,,0.00,156.000000,,2013-04-12 01:32:00,
2013-04-11 20:03:00,34.0,19.0,-100.00,WSW,238,14.0,25.0,54,0.00,,,0.00,41.000000,,2013-04-12 02:03:00,
2013-04-11 20:12:00,34.0,19.0,-100.00,WSW,238,14.0,25.0,54,0.00,,,0.00,41.000000,,2013-04-12 02:12:00,
2013-04-11 20:22:00,34.0,19.0,-100.00,WSW,238,14.0,25.0,54,0.00,,,0.00,41.000000,,2013-04-12 02:22:00,
2013-04-11 20:32:00,34.0,19.0,-100.00,WSW,238,14.0,25.0,54,0.00,,,0.00,41.000000,,2013-04-12 02:32:00,
2013-04-11 20:52:00,33.0,19.0,-100.00,SW,233,12.0,21.0,55,0.00,,,0.00,1.000000,,2013-04-12 02:52:00,
2013-04-11 21:02:00,33.0,19.0,-100.00,SW,233,12.0,21.0,55,0.00,,,0.00,1.000000,,2013-04-12 03:02:00,
2013-04-11 21:12:00,33.0,19.0,-100.00,SW,233,12.0,21.0,55,0.00,,,0.00,1.000000,,2013-04-12 03:12:00,
2013-04-11 21:22:00,33.0,19.0,-100.00,SW,233,12.0,21.0,55,0.00,,,0.00,1.000000,,2013-04-12 03:22:00,
2013-04-11 21:33:00,33.0,19.0,-100.00,SW,233,12.0,21.0,55,0.00,,,0.00,1.000000,,2013-04-12 03:33:00,
2013-04-11 21:53:00,32.0,17.0,-100.00,SW,221,7.0,20.0,53,0.00,,,0.00,0.000000,,2013-04-12 03:53:00,
2013-04-11 22:03:00,32.0,17.0,-100.00,SW,221,7.0,20.0,53,0.00,,,0.00,0.000000,,2013-04-12 04:03:00,
2013-04-11 22:13:00,32.0,17.0,-100.00,SW,221,7.0,20.0,53,0.00,,,0.00,0.000000,,2013-04-12 04:13:00,
2013-04-11 22:23:00,32.0,17.0,-100.00,SW,221,7.0,20.0,53,0.00,,,0.00,0.000000,,2013-04-12 04:23:00,
2013-04-11 22:33:00,32.0,17.0,-100.00,SW,221,7.0,20.0,53,0.00,,,0.00,0.000000,,2013-04-12 04:33:00,
2013-04-11 22:53:00,31.0,17.0,-100.00,West,272,4.0,14.0,55,0.00,,,0.00,0.000000,,2013-04-12 04:53:00,
2013-04-11 23:03:00,31.0,17.0,-100.00,West,272,4.0,14.0,55,0.00,,,0.00,0.000000,,2013-04-12 05:03:00,
2013-04-11 23:12:00,31.0,17.0,-100.00,West,272,4.0,14.0,55,0.00,,,0.00,0.000000,,2013-04-12 05:12:00,
2013-04-11 23:23:00,31.0,17.0,-100.00,West,272,4.0,14.0,55,0.00,,,0.00,0.000000,,2013-04-12 05:23:00,
2013-04-11 23:32:00,31.0,17.0,-100.00,West,272,4.0,14.0,55,0.00,,,0.00,0.000000,,2013-04-12 05:32:00,
2013-04-11 23:52:00,30.0,16.0,-100.00,WSW,252,3.0,12.0,55,0.00,,,0.00,0.000000,,2013-04-12 05:52:00,